<?xml version="1.0" encoding="UTF-8" standalone="no" ?>
<gpx xmlns="http://www.topografix.com/GPX/1/1" xmlns:xsi="http://www.w3.org/2001/XMLSchema-instance" xsi:schemaLocation="http://www.topografix.com/GPX/1/1 http://www.topografix.com/GPX/1/1/gpx.xsd" version="1.1" creator="VisuGPX - https://www.visugpx.com">
  <metadata>
    <name>herimoncourt seloncourt vaudoncourt abbevillers</name>
    <desc><![CDATA[circuit roulant puis descente pre sire et grammont]]></desc>
  </metadata>
  <trk>
    <name><![CDATA[LUI ARS-14 18:34:22]]></name>
    <trkseg>
      <trkpt lat="47.44429" lon="6.88347">
        <ele>373.61</ele>
        <time>2014-03-03T15:58:15Z</time>
      </trkpt>
      <trkpt lat="47.4443" lon="6.88347">
        <ele>376.97</ele>
        <time>2014-03-03T15:58:38Z</time>
      </trkpt>
      <trkpt lat="47.44429" lon="6.88346">
        <ele>376.01</ele>
        <time>2014-03-03T15:59:08Z</time>
      </trkpt>
      <trkpt lat="47.4443" lon="6.88346">
        <ele>376.01</ele>
        <time>2014-03-03T15:59:11Z</time>
      </trkpt>
      <trkpt lat="47.44435" lon="6.88345">
        <ele>372.17</ele>
        <time>2014-03-03T15:59:26Z</time>
      </trkpt>
      <trkpt lat="47.44438" lon="6.88342">
        <ele>370.73</ele>
        <time>2014-03-03T15:59:35Z</time>
      </trkpt>
      <trkpt lat="47.44432" lon="6.88374">
        <ele>367.84</ele>
        <time>2014-03-03T15:59:47Z</time>
      </trkpt>
      <trkpt lat="47.44424" lon="6.88403">
        <ele>367.36</ele>
        <time>2014-03-03T15:59:54Z</time>
      </trkpt>
      <trkpt lat="47.44435" lon="6.88416">
        <ele>367.84</ele>
        <time>2014-03-03T15:59:58Z</time>
      </trkpt>
      <trkpt lat="47.44485" lon="6.88427">
        <ele>367.36</ele>
        <time>2014-03-03T16:00:07Z</time>
      </trkpt>
      <trkpt lat="47.4452" lon="6.88408">
        <ele>367.84</ele>
        <time>2014-03-03T16:00:14Z</time>
      </trkpt>
      <trkpt lat="47.44598" lon="6.88329">
        <ele>367.84</ele>
        <time>2014-03-03T16:00:29Z</time>
      </trkpt>
      <trkpt lat="47.44653" lon="6.88224">
        <ele>366.4</ele>
        <time>2014-03-03T16:00:43Z</time>
      </trkpt>
      <trkpt lat="47.44671" lon="6.88209">
        <ele>365.44</ele>
        <time>2014-03-03T16:00:49Z</time>
      </trkpt>
      <trkpt lat="47.44678" lon="6.8822">
        <ele>364.96</ele>
        <time>2014-03-03T16:00:51Z</time>
      </trkpt>
      <trkpt lat="47.44714" lon="6.88269">
        <ele>364</ele>
        <time>2014-03-03T16:01:00Z</time>
      </trkpt>
      <trkpt lat="47.44719" lon="6.88281">
        <ele>364</ele>
        <time>2014-03-03T16:01:02Z</time>
      </trkpt>
      <trkpt lat="47.44729" lon="6.88283">
        <ele>363.04</ele>
        <time>2014-03-03T16:01:06Z</time>
      </trkpt>
      <trkpt lat="47.44771" lon="6.882">
        <ele>361.59</ele>
        <time>2014-03-03T16:01:19Z</time>
      </trkpt>
      <trkpt lat="47.44827" lon="6.88107">
        <ele>360.63</ele>
        <time>2014-03-03T16:01:34Z</time>
      </trkpt>
      <trkpt lat="47.44899" lon="6.88006">
        <ele>358.23</ele>
        <time>2014-03-03T16:01:50Z</time>
      </trkpt>
      <trkpt lat="47.44965" lon="6.87951">
        <ele>353.9</ele>
        <time>2014-03-03T16:02:05Z</time>
      </trkpt>
      <trkpt lat="47.45001" lon="6.87927">
        <ele>351.02</ele>
        <time>2014-03-03T16:02:13Z</time>
      </trkpt>
      <trkpt lat="47.45037" lon="6.87919">
        <ele>349.58</ele>
        <time>2014-03-03T16:02:20Z</time>
      </trkpt>
      <trkpt lat="47.45054" lon="6.8791">
        <ele>349.1</ele>
        <time>2014-03-03T16:02:24Z</time>
      </trkpt>
      <trkpt lat="47.45072" lon="6.87894">
        <ele>348.13</ele>
        <time>2014-03-03T16:02:28Z</time>
      </trkpt>
      <trkpt lat="47.45094" lon="6.87876">
        <ele>346.69</ele>
        <time>2014-03-03T16:02:33Z</time>
      </trkpt>
      <trkpt lat="47.45111" lon="6.87866">
        <ele>346.69</ele>
        <time>2014-03-03T16:02:37Z</time>
      </trkpt>
      <trkpt lat="47.45163" lon="6.87839">
        <ele>347.65</ele>
        <time>2014-03-03T16:02:51Z</time>
      </trkpt>
      <trkpt lat="47.45203" lon="6.87791">
        <ele>348.62</ele>
        <time>2014-03-03T16:03:03Z</time>
      </trkpt>
      <trkpt lat="47.45207" lon="6.87783">
        <ele>348.62</ele>
        <time>2014-03-03T16:03:07Z</time>
      </trkpt>
      <trkpt lat="47.45203" lon="6.87752">
        <ele>351.5</ele>
        <time>2014-03-03T16:03:12Z</time>
      </trkpt>
      <trkpt lat="47.45217" lon="6.8762">
        <ele>352.46</ele>
        <time>2014-03-03T16:03:18Z</time>
      </trkpt>
      <trkpt lat="47.45215" lon="6.87592">
        <ele>352.94</ele>
        <time>2014-03-03T16:03:23Z</time>
      </trkpt>
      <trkpt lat="47.4522" lon="6.87569">
        <ele>352.46</ele>
        <time>2014-03-03T16:03:29Z</time>
      </trkpt>
      <trkpt lat="47.45208" lon="6.875">
        <ele>354.86</ele>
        <time>2014-03-03T16:03:39Z</time>
      </trkpt>
      <trkpt lat="47.45214" lon="6.87482">
        <ele>356.31</ele>
        <time>2014-03-03T16:03:43Z</time>
      </trkpt>
      <trkpt lat="47.45259" lon="6.87476">
        <ele>356.79</ele>
        <time>2014-03-03T16:03:52Z</time>
      </trkpt>
      <trkpt lat="47.45269" lon="6.87475">
        <ele>356.79</ele>
        <time>2014-03-03T16:03:54Z</time>
      </trkpt>
      <trkpt lat="47.45286" lon="6.87469">
        <ele>356.31</ele>
        <time>2014-03-03T16:03:58Z</time>
      </trkpt>
      <trkpt lat="47.45304" lon="6.87466">
        <ele>356.79</ele>
        <time>2014-03-03T16:04:02Z</time>
      </trkpt>
      <trkpt lat="47.45315" lon="6.87463">
        <ele>357.27</ele>
        <time>2014-03-03T16:04:05Z</time>
      </trkpt>
      <trkpt lat="47.45317" lon="6.87452">
        <ele>358.23</ele>
        <time>2014-03-03T16:04:09Z</time>
      </trkpt>
      <trkpt lat="47.45307" lon="6.87394">
        <ele>360.63</ele>
        <time>2014-03-03T16:04:24Z</time>
      </trkpt>
      <trkpt lat="47.45298" lon="6.87345">
        <ele>362.55</ele>
        <time>2014-03-03T16:04:37Z</time>
      </trkpt>
      <trkpt lat="47.45278" lon="6.87303">
        <ele>365.92</ele>
        <time>2014-03-03T16:04:52Z</time>
      </trkpt>
      <trkpt lat="47.45255" lon="6.87276">
        <ele>368.32</ele>
        <time>2014-03-03T16:05:05Z</time>
      </trkpt>
      <trkpt lat="47.45239" lon="6.87247">
        <ele>373.61</ele>
        <time>2014-03-03T16:05:19Z</time>
      </trkpt>
      <trkpt lat="47.45225" lon="6.87227">
        <ele>376.97</ele>
        <time>2014-03-03T16:05:32Z</time>
      </trkpt>
      <trkpt lat="47.45218" lon="6.87227">
        <ele>377.94</ele>
        <time>2014-03-03T16:05:36Z</time>
      </trkpt>
      <trkpt lat="47.45194" lon="6.87217">
        <ele>381.3</ele>
        <time>2014-03-03T16:05:52Z</time>
      </trkpt>
      <trkpt lat="47.45183" lon="6.87206">
        <ele>380.82</ele>
        <time>2014-03-03T16:06:05Z</time>
      </trkpt>
      <trkpt lat="47.45182" lon="6.87201">
        <ele>381.3</ele>
        <time>2014-03-03T16:06:07Z</time>
      </trkpt>
      <trkpt lat="47.45179" lon="6.87198">
        <ele>380.82</ele>
        <time>2014-03-03T16:06:10Z</time>
      </trkpt>
      <trkpt lat="47.45089" lon="6.8723">
        <ele>431.29</ele>
        <time>2014-03-03T16:06:24Z</time>
      </trkpt>
      <trkpt lat="47.45066" lon="6.87227">
        <ele>452.44</ele>
        <time>2014-03-03T16:06:37Z</time>
      </trkpt>
      <trkpt lat="47.45043" lon="6.87221">
        <ele>471.66</ele>
        <time>2014-03-03T16:06:51Z</time>
      </trkpt>
      <trkpt lat="47.45015" lon="6.87217">
        <ele>488.97</ele>
        <time>2014-03-03T16:07:06Z</time>
      </trkpt>
      <trkpt lat="47.4499" lon="6.87213">
        <ele>499.54</ele>
        <time>2014-03-03T16:07:19Z</time>
      </trkpt>
      <trkpt lat="47.44977" lon="6.87209">
        <ele>504.83</ele>
        <time>2014-03-03T16:07:29Z</time>
      </trkpt>
      <trkpt lat="47.44976" lon="6.87205">
        <ele>504.83</ele>
        <time>2014-03-03T16:07:32Z</time>
      </trkpt>
      <trkpt lat="47.44949" lon="6.87198">
        <ele>507.71</ele>
        <time>2014-03-03T16:07:46Z</time>
      </trkpt>
      <trkpt lat="47.44926" lon="6.87199">
        <ele>507.71</ele>
        <time>2014-03-03T16:07:58Z</time>
      </trkpt>
      <trkpt lat="47.44916" lon="6.87194">
        <ele>508.19</ele>
        <time>2014-03-03T16:08:04Z</time>
      </trkpt>
      <trkpt lat="47.4489" lon="6.87176">
        <ele>507.71</ele>
        <time>2014-03-03T16:08:18Z</time>
      </trkpt>
      <trkpt lat="47.44851" lon="6.87148">
        <ele>507.71</ele>
        <time>2014-03-03T16:08:34Z</time>
      </trkpt>
      <trkpt lat="47.44845" lon="6.87145">
        <ele>507.23</ele>
        <time>2014-03-03T16:08:37Z</time>
      </trkpt>
      <trkpt lat="47.44809" lon="6.87132">
        <ele>502.43</ele>
        <time>2014-03-03T16:08:51Z</time>
      </trkpt>
      <trkpt lat="47.44782" lon="6.87116">
        <ele>497.14</ele>
        <time>2014-03-03T16:09:03Z</time>
      </trkpt>
      <trkpt lat="47.44757" lon="6.87095">
        <ele>490.89</ele>
        <time>2014-03-03T16:09:15Z</time>
      </trkpt>
      <trkpt lat="47.44738" lon="6.87072">
        <ele>484.16</ele>
        <time>2014-03-03T16:09:27Z</time>
      </trkpt>
      <trkpt lat="47.44703" lon="6.87038">
        <ele>481.76</ele>
        <time>2014-03-03T16:09:43Z</time>
      </trkpt>
      <trkpt lat="47.44673" lon="6.87006">
        <ele>483.2</ele>
        <time>2014-03-03T16:09:57Z</time>
      </trkpt>
      <trkpt lat="47.44646" lon="6.86978">
        <ele>482.24</ele>
        <time>2014-03-03T16:10:11Z</time>
      </trkpt>
      <trkpt lat="47.44614" lon="6.86958">
        <ele>480.32</ele>
        <time>2014-03-03T16:10:25Z</time>
      </trkpt>
      <trkpt lat="47.44613" lon="6.86956">
        <ele>480.32</ele>
        <time>2014-03-03T16:10:26Z</time>
      </trkpt>
      <trkpt lat="47.44601" lon="6.8693">
        <ele>471.18</ele>
        <time>2014-03-03T16:10:42Z</time>
      </trkpt>
      <trkpt lat="47.44596" lon="6.86899">
        <ele>466.38</ele>
        <time>2014-03-03T16:10:57Z</time>
      </trkpt>
      <trkpt lat="47.44593" lon="6.86868">
        <ele>463.01</ele>
        <time>2014-03-03T16:11:10Z</time>
      </trkpt>
      <trkpt lat="47.4459" lon="6.86819">
        <ele>453.88</ele>
        <time>2014-03-03T16:11:29Z</time>
      </trkpt>
      <trkpt lat="47.44585" lon="6.86787">
        <ele>455.8</ele>
        <time>2014-03-03T16:11:45Z</time>
      </trkpt>
      <trkpt lat="47.44584" lon="6.86783">
        <ele>456.28</ele>
        <time>2014-03-03T16:11:47Z</time>
      </trkpt>
      <trkpt lat="47.44573" lon="6.8675">
        <ele>458.69</ele>
        <time>2014-03-03T16:12:04Z</time>
      </trkpt>
      <trkpt lat="47.44569" lon="6.86733">
        <ele>459.65</ele>
        <time>2014-03-03T16:12:13Z</time>
      </trkpt>
      <trkpt lat="47.44568" lon="6.86729">
        <ele>460.13</ele>
        <time>2014-03-03T16:12:15Z</time>
      </trkpt>
      <trkpt lat="47.44555" lon="6.8669">
        <ele>460.61</ele>
        <time>2014-03-03T16:12:34Z</time>
      </trkpt>
      <trkpt lat="47.44555" lon="6.86686">
        <ele>460.61</ele>
        <time>2014-03-03T16:12:36Z</time>
      </trkpt>
      <trkpt lat="47.44555" lon="6.86661">
        <ele>459.65</ele>
        <time>2014-03-03T16:12:49Z</time>
      </trkpt>
      <trkpt lat="47.44561" lon="6.86648">
        <ele>466.86</ele>
        <time>2014-03-03T16:13:03Z</time>
      </trkpt>
      <trkpt lat="47.4457" lon="6.8663">
        <ele>478.87</ele>
        <time>2014-03-03T16:13:19Z</time>
      </trkpt>
      <trkpt lat="47.4458" lon="6.86605">
        <ele>479.84</ele>
        <time>2014-03-03T16:13:32Z</time>
      </trkpt>
      <trkpt lat="47.44583" lon="6.86599">
        <ele>479.84</ele>
        <time>2014-03-03T16:13:35Z</time>
      </trkpt>
      <trkpt lat="47.44599" lon="6.86575">
        <ele>479.84</ele>
        <time>2014-03-03T16:13:50Z</time>
      </trkpt>
      <trkpt lat="47.44615" lon="6.86543">
        <ele>476.95</ele>
        <time>2014-03-03T16:14:06Z</time>
      </trkpt>
      <trkpt lat="47.44624" lon="6.86529">
        <ele>479.35</ele>
        <time>2014-03-03T16:14:15Z</time>
      </trkpt>
      <trkpt lat="47.44643" lon="6.86504">
        <ele>482.24</ele>
        <time>2014-03-03T16:14:33Z</time>
      </trkpt>
      <trkpt lat="47.44647" lon="6.86498">
        <ele>482.72</ele>
        <time>2014-03-03T16:14:37Z</time>
      </trkpt>
      <trkpt lat="47.44664" lon="6.86485">
        <ele>481.76</ele>
        <time>2014-03-03T16:14:50Z</time>
      </trkpt>
      <trkpt lat="47.44672" lon="6.86483">
        <ele>483.2</ele>
        <time>2014-03-03T16:14:58Z</time>
      </trkpt>
      <trkpt lat="47.44664" lon="6.86513">
        <ele>484.16</ele>
        <time>2014-03-03T16:15:10Z</time>
      </trkpt>
      <trkpt lat="47.4464" lon="6.86557">
        <ele>486.08</ele>
        <time>2014-03-03T16:15:22Z</time>
      </trkpt>
      <trkpt lat="47.44631" lon="6.86567">
        <ele>486.08</ele>
        <time>2014-03-03T16:15:25Z</time>
      </trkpt>
      <trkpt lat="47.44627" lon="6.86573">
        <ele>485.6</ele>
        <time>2014-03-03T16:15:27Z</time>
      </trkpt>
      <trkpt lat="47.44618" lon="6.86631">
        <ele>483.68</ele>
        <time>2014-03-03T16:15:37Z</time>
      </trkpt>
      <trkpt lat="47.44614" lon="6.86725">
        <ele>482.72</ele>
        <time>2014-03-03T16:15:49Z</time>
      </trkpt>
      <trkpt lat="47.4466" lon="6.86805">
        <ele>478.39</ele>
        <time>2014-03-03T16:16:01Z</time>
      </trkpt>
      <trkpt lat="47.44729" lon="6.86887">
        <ele>473.11</ele>
        <time>2014-03-03T16:16:13Z</time>
      </trkpt>
      <trkpt lat="47.44771" lon="6.86942">
        <ele>468.3</ele>
        <time>2014-03-03T16:16:26Z</time>
      </trkpt>
      <trkpt lat="47.44821" lon="6.86985">
        <ele>467.34</ele>
        <time>2014-03-03T16:16:40Z</time>
      </trkpt>
      <trkpt lat="47.44878" lon="6.87017">
        <ele>465.42</ele>
        <time>2014-03-03T16:16:53Z</time>
      </trkpt>
      <trkpt lat="47.44936" lon="6.87034">
        <ele>466.38</ele>
        <time>2014-03-03T16:17:03Z</time>
      </trkpt>
      <trkpt lat="47.44953" lon="6.87031">
        <ele>468.3</ele>
        <time>2014-03-03T16:17:06Z</time>
      </trkpt>
      <trkpt lat="47.44983" lon="6.87008">
        <ele>469.26</ele>
        <time>2014-03-03T16:17:12Z</time>
      </trkpt>
      <trkpt lat="47.45013" lon="6.86967">
        <ele>470.7</ele>
        <time>2014-03-03T16:17:21Z</time>
      </trkpt>
      <trkpt lat="47.4502" lon="6.86957">
        <ele>470.7</ele>
        <time>2014-03-03T16:17:23Z</time>
      </trkpt>
      <trkpt lat="47.45037" lon="6.86935">
        <ele>471.18</ele>
        <time>2014-03-03T16:17:27Z</time>
      </trkpt>
      <trkpt lat="47.45095" lon="6.86899">
        <ele>472.14</ele>
        <time>2014-03-03T16:17:36Z</time>
      </trkpt>
      <trkpt lat="47.45103" lon="6.86901">
        <ele>471.66</ele>
        <time>2014-03-03T16:17:37Z</time>
      </trkpt>
      <trkpt lat="47.45141" lon="6.86917">
        <ele>469.74</ele>
        <time>2014-03-03T16:17:46Z</time>
      </trkpt>
      <trkpt lat="47.45177" lon="6.86929">
        <ele>469.74</ele>
        <time>2014-03-03T16:17:58Z</time>
      </trkpt>
      <trkpt lat="47.45188" lon="6.86934">
        <ele>471.18</ele>
        <time>2014-03-03T16:18:01Z</time>
      </trkpt>
      <trkpt lat="47.45211" lon="6.86936">
        <ele>472.14</ele>
        <time>2014-03-03T16:18:06Z</time>
      </trkpt>
      <trkpt lat="47.45229" lon="6.86936">
        <ele>472.14</ele>
        <time>2014-03-03T16:18:09Z</time>
      </trkpt>
      <trkpt lat="47.45275" lon="6.86923">
        <ele>472.14</ele>
        <time>2014-03-03T16:18:17Z</time>
      </trkpt>
      <trkpt lat="47.45288" lon="6.86892">
        <ele>472.63</ele>
        <time>2014-03-03T16:18:22Z</time>
      </trkpt>
      <trkpt lat="47.4529" lon="6.86877">
        <ele>472.63</ele>
        <time>2014-03-03T16:18:24Z</time>
      </trkpt>
      <trkpt lat="47.45319" lon="6.8679">
        <ele>468.3</ele>
        <time>2014-03-03T16:18:36Z</time>
      </trkpt>
      <trkpt lat="47.45341" lon="6.86734">
        <ele>460.61</ele>
        <time>2014-03-03T16:18:42Z</time>
      </trkpt>
      <trkpt lat="47.45375" lon="6.86671">
        <ele>459.65</ele>
        <time>2014-03-03T16:18:52Z</time>
      </trkpt>
      <trkpt lat="47.45404" lon="6.86642">
        <ele>458.21</ele>
        <time>2014-03-03T16:18:57Z</time>
      </trkpt>
      <trkpt lat="47.45438" lon="6.86593">
        <ele>458.21</ele>
        <time>2014-03-03T16:19:04Z</time>
      </trkpt>
      <trkpt lat="47.45503" lon="6.86491">
        <ele>455.8</ele>
        <time>2014-03-03T16:19:19Z</time>
      </trkpt>
      <trkpt lat="47.4555" lon="6.86404">
        <ele>438.98</ele>
        <time>2014-03-03T16:19:33Z</time>
      </trkpt>
      <trkpt lat="47.45604" lon="6.86307">
        <ele>419.75</ele>
        <time>2014-03-03T16:19:47Z</time>
      </trkpt>
      <trkpt lat="47.45614" lon="6.86288">
        <ele>414.47</ele>
        <time>2014-03-03T16:19:52Z</time>
      </trkpt>
      <trkpt lat="47.45619" lon="6.86265">
        <ele>412.06</ele>
        <time>2014-03-03T16:19:57Z</time>
      </trkpt>
      <trkpt lat="47.45625" lon="6.86243">
        <ele>411.58</ele>
        <time>2014-03-03T16:20:03Z</time>
      </trkpt>
      <trkpt lat="47.45621" lon="6.86143">
        <ele>406.29</ele>
        <time>2014-03-03T16:20:17Z</time>
      </trkpt>
      <trkpt lat="47.45608" lon="6.86077">
        <ele>403.89</ele>
        <time>2014-03-03T16:20:33Z</time>
      </trkpt>
      <trkpt lat="47.45588" lon="6.86019">
        <ele>402.93</ele>
        <time>2014-03-03T16:20:47Z</time>
      </trkpt>
      <trkpt lat="47.45572" lon="6.85986">
        <ele>403.41</ele>
        <time>2014-03-03T16:20:57Z</time>
      </trkpt>
      <trkpt lat="47.45566" lon="6.85977">
        <ele>403.89</ele>
        <time>2014-03-03T16:21:00Z</time>
      </trkpt>
      <trkpt lat="47.45559" lon="6.8593">
        <ele>401.01</ele>
        <time>2014-03-03T16:21:08Z</time>
      </trkpt>
      <trkpt lat="47.45587" lon="6.85839">
        <ele>398.12</ele>
        <time>2014-03-03T16:21:21Z</time>
      </trkpt>
      <trkpt lat="47.45594" lon="6.85799">
        <ele>391.87</ele>
        <time>2014-03-03T16:21:30Z</time>
      </trkpt>
      <trkpt lat="47.45587" lon="6.85795">
        <ele>388.99</ele>
        <time>2014-03-03T16:21:35Z</time>
      </trkpt>
      <trkpt lat="47.45574" lon="6.85757">
        <ele>388.51</ele>
        <time>2014-03-03T16:21:48Z</time>
      </trkpt>
      <trkpt lat="47.45574" lon="6.85753">
        <ele>388.51</ele>
        <time>2014-03-03T16:21:49Z</time>
      </trkpt>
      <trkpt lat="47.45574" lon="6.8575">
        <ele>385.15</ele>
        <time>2014-03-03T16:21:54Z</time>
      </trkpt>
      <trkpt lat="47.45587" lon="6.85752">
        <ele>378.42</ele>
        <time>2014-03-03T16:22:02Z</time>
      </trkpt>
      <trkpt lat="47.45658" lon="6.85758">
        <ele>374.57</ele>
        <time>2014-03-03T16:22:15Z</time>
      </trkpt>
      <trkpt lat="47.45788" lon="6.85775">
        <ele>366.4</ele>
        <time>2014-03-03T16:22:33Z</time>
      </trkpt>
      <trkpt lat="47.45858" lon="6.85787">
        <ele>359.67</ele>
        <time>2014-03-03T16:22:43Z</time>
      </trkpt>
      <trkpt lat="47.45958" lon="6.85836">
        <ele>351.5</ele>
        <time>2014-03-03T16:22:58Z</time>
      </trkpt>
      <trkpt lat="47.46037" lon="6.85822">
        <ele>347.17</ele>
        <time>2014-03-03T16:23:09Z</time>
      </trkpt>
      <trkpt lat="47.46051" lon="6.85819">
        <ele>346.21</ele>
        <time>2014-03-03T16:23:11Z</time>
      </trkpt>
      <trkpt lat="47.46081" lon="6.85825">
        <ele>344.77</ele>
        <time>2014-03-03T16:23:16Z</time>
      </trkpt>
      <trkpt lat="47.46086" lon="6.85858">
        <ele>344.29</ele>
        <time>2014-03-03T16:23:21Z</time>
      </trkpt>
      <trkpt lat="47.461" lon="6.85892">
        <ele>344.29</ele>
        <time>2014-03-03T16:23:28Z</time>
      </trkpt>
      <trkpt lat="47.46109" lon="6.85893">
        <ele>344.77</ele>
        <time>2014-03-03T16:23:30Z</time>
      </trkpt>
      <trkpt lat="47.46132" lon="6.85912">
        <ele>344.77</ele>
        <time>2014-03-03T16:23:36Z</time>
      </trkpt>
      <trkpt lat="47.46141" lon="6.85929">
        <ele>345.25</ele>
        <time>2014-03-03T16:23:40Z</time>
      </trkpt>
      <trkpt lat="47.46151" lon="6.85962">
        <ele>345.25</ele>
        <time>2014-03-03T16:23:46Z</time>
      </trkpt>
      <trkpt lat="47.46152" lon="6.85969">
        <ele>346.21</ele>
        <time>2014-03-03T16:23:59Z</time>
      </trkpt>
      <trkpt lat="47.46152" lon="6.85971">
        <ele>345.73</ele>
        <time>2014-03-03T16:24:01Z</time>
      </trkpt>
      <trkpt lat="47.46151" lon="6.85977">
        <ele>345.25</ele>
        <time>2014-03-03T16:24:05Z</time>
      </trkpt>
      <trkpt lat="47.46157" lon="6.85991">
        <ele>343.81</ele>
        <time>2014-03-03T16:24:09Z</time>
      </trkpt>
      <trkpt lat="47.46159" lon="6.86004">
        <ele>343.33</ele>
        <time>2014-03-03T16:24:11Z</time>
      </trkpt>
      <trkpt lat="47.46168" lon="6.8603">
        <ele>341.89</ele>
        <time>2014-03-03T16:24:15Z</time>
      </trkpt>
      <trkpt lat="47.46174" lon="6.8604">
        <ele>341.41</ele>
        <time>2014-03-03T16:24:17Z</time>
      </trkpt>
      <trkpt lat="47.46236" lon="6.86103">
        <ele>345.25</ele>
        <time>2014-03-03T16:24:30Z</time>
      </trkpt>
      <trkpt lat="47.46263" lon="6.86128">
        <ele>346.21</ele>
        <time>2014-03-03T16:24:36Z</time>
      </trkpt>
      <trkpt lat="47.46286" lon="6.86152">
        <ele>348.62</ele>
        <time>2014-03-03T16:24:43Z</time>
      </trkpt>
      <trkpt lat="47.46298" lon="6.86144">
        <ele>349.1</ele>
        <time>2014-03-03T16:24:46Z</time>
      </trkpt>
      <trkpt lat="47.4635" lon="6.86132">
        <ele>350.06</ele>
        <time>2014-03-03T16:25:00Z</time>
      </trkpt>
      <trkpt lat="47.46389" lon="6.86141">
        <ele>349.1</ele>
        <time>2014-03-03T16:25:16Z</time>
      </trkpt>
      <trkpt lat="47.46418" lon="6.86135">
        <ele>350.06</ele>
        <time>2014-03-03T16:25:32Z</time>
      </trkpt>
      <trkpt lat="47.46452" lon="6.86124">
        <ele>350.54</ele>
        <time>2014-03-03T16:25:48Z</time>
      </trkpt>
      <trkpt lat="47.4648" lon="6.86116">
        <ele>352.94</ele>
        <time>2014-03-03T16:26:03Z</time>
      </trkpt>
      <trkpt lat="47.46512" lon="6.86108">
        <ele>353.9</ele>
        <time>2014-03-03T16:26:21Z</time>
      </trkpt>
      <trkpt lat="47.46541" lon="6.86101">
        <ele>357.27</ele>
        <time>2014-03-03T16:26:36Z</time>
      </trkpt>
      <trkpt lat="47.46568" lon="6.86121">
        <ele>364.48</ele>
        <time>2014-03-03T16:26:52Z</time>
      </trkpt>
      <trkpt lat="47.46594" lon="6.86154">
        <ele>370.73</ele>
        <time>2014-03-03T16:27:08Z</time>
      </trkpt>
      <trkpt lat="47.46633" lon="6.86217">
        <ele>374.09</ele>
        <time>2014-03-03T16:27:30Z</time>
      </trkpt>
      <trkpt lat="47.46666" lon="6.86268">
        <ele>378.42</ele>
        <time>2014-03-03T16:27:50Z</time>
      </trkpt>
      <trkpt lat="47.46692" lon="6.86321">
        <ele>379.86</ele>
        <time>2014-03-03T16:28:09Z</time>
      </trkpt>
      <trkpt lat="47.46717" lon="6.86375">
        <ele>383.22</ele>
        <time>2014-03-03T16:28:26Z</time>
      </trkpt>
      <trkpt lat="47.46739" lon="6.86433">
        <ele>386.59</ele>
        <time>2014-03-03T16:28:42Z</time>
      </trkpt>
      <trkpt lat="47.46757" lon="6.86492">
        <ele>388.03</ele>
        <time>2014-03-03T16:28:55Z</time>
      </trkpt>
      <trkpt lat="47.46772" lon="6.86515">
        <ele>386.59</ele>
        <time>2014-03-03T16:29:00Z</time>
      </trkpt>
      <trkpt lat="47.46798" lon="6.86529">
        <ele>385.63</ele>
        <time>2014-03-03T16:29:05Z</time>
      </trkpt>
      <trkpt lat="47.46816" lon="6.86546">
        <ele>384.66</ele>
        <time>2014-03-03T16:29:09Z</time>
      </trkpt>
      <trkpt lat="47.46829" lon="6.86574">
        <ele>384.66</ele>
        <time>2014-03-03T16:29:14Z</time>
      </trkpt>
      <trkpt lat="47.46834" lon="6.86628">
        <ele>387.07</ele>
        <time>2014-03-03T16:29:28Z</time>
      </trkpt>
      <trkpt lat="47.46838" lon="6.86704">
        <ele>393.8</ele>
        <time>2014-03-03T16:29:50Z</time>
      </trkpt>
      <trkpt lat="47.46848" lon="6.86751">
        <ele>396.68</ele>
        <time>2014-03-03T16:30:04Z</time>
      </trkpt>
      <trkpt lat="47.46864" lon="6.86809">
        <ele>400.05</ele>
        <time>2014-03-03T16:30:25Z</time>
      </trkpt>
      <trkpt lat="47.46871" lon="6.86868">
        <ele>403.89</ele>
        <time>2014-03-03T16:30:45Z</time>
      </trkpt>
      <trkpt lat="47.4688" lon="6.86934">
        <ele>407.26</ele>
        <time>2014-03-03T16:31:05Z</time>
      </trkpt>
      <trkpt lat="47.4688" lon="6.87017">
        <ele>410.62</ele>
        <time>2014-03-03T16:31:27Z</time>
      </trkpt>
      <trkpt lat="47.46875" lon="6.87087">
        <ele>413.98</ele>
        <time>2014-03-03T16:31:47Z</time>
      </trkpt>
      <trkpt lat="47.46868" lon="6.87155">
        <ele>417.35</ele>
        <time>2014-03-03T16:32:09Z</time>
      </trkpt>
      <trkpt lat="47.46858" lon="6.87223">
        <ele>421.19</ele>
        <time>2014-03-03T16:32:31Z</time>
      </trkpt>
      <trkpt lat="47.46848" lon="6.87285">
        <ele>424.56</ele>
        <time>2014-03-03T16:32:51Z</time>
      </trkpt>
      <trkpt lat="47.46842" lon="6.87355">
        <ele>428.4</ele>
        <time>2014-03-03T16:33:10Z</time>
      </trkpt>
      <trkpt lat="47.4685" lon="6.87433">
        <ele>430.81</ele>
        <time>2014-03-03T16:33:26Z</time>
      </trkpt>
      <trkpt lat="47.46843" lon="6.87518">
        <ele>431.77</ele>
        <time>2014-03-03T16:33:41Z</time>
      </trkpt>
      <trkpt lat="47.4683" lon="6.87612">
        <ele>431.77</ele>
        <time>2014-03-03T16:33:57Z</time>
      </trkpt>
      <trkpt lat="47.4683" lon="6.87628">
        <ele>431.29</ele>
        <time>2014-03-03T16:34:00Z</time>
      </trkpt>
      <trkpt lat="47.46837" lon="6.87706">
        <ele>431.29</ele>
        <time>2014-03-03T16:34:15Z</time>
      </trkpt>
      <trkpt lat="47.46839" lon="6.87754">
        <ele>430.33</ele>
        <time>2014-03-03T16:34:27Z</time>
      </trkpt>
      <trkpt lat="47.46838" lon="6.87802">
        <ele>428.4</ele>
        <time>2014-03-03T16:34:40Z</time>
      </trkpt>
      <trkpt lat="47.46837" lon="6.87879">
        <ele>427.92</ele>
        <time>2014-03-03T16:35:01Z</time>
      </trkpt>
      <trkpt lat="47.46837" lon="6.87935">
        <ele>426</ele>
        <time>2014-03-03T16:35:15Z</time>
      </trkpt>
      <trkpt lat="47.46837" lon="6.88017">
        <ele>425.04</ele>
        <time>2014-03-03T16:35:34Z</time>
      </trkpt>
      <trkpt lat="47.46826" lon="6.88105">
        <ele>424.08</ele>
        <time>2014-03-03T16:35:53Z</time>
      </trkpt>
      <trkpt lat="47.46808" lon="6.88183">
        <ele>420.23</ele>
        <time>2014-03-03T16:36:09Z</time>
      </trkpt>
      <trkpt lat="47.46797" lon="6.88252">
        <ele>418.31</ele>
        <time>2014-03-03T16:36:25Z</time>
      </trkpt>
      <trkpt lat="47.46792" lon="6.88338">
        <ele>417.83</ele>
        <time>2014-03-03T16:36:44Z</time>
      </trkpt>
      <trkpt lat="47.46789" lon="6.88409">
        <ele>416.87</ele>
        <time>2014-03-03T16:36:59Z</time>
      </trkpt>
      <trkpt lat="47.46786" lon="6.88499">
        <ele>415.91</ele>
        <time>2014-03-03T16:37:17Z</time>
      </trkpt>
      <trkpt lat="47.46782" lon="6.88562">
        <ele>416.39</ele>
        <time>2014-03-03T16:37:30Z</time>
      </trkpt>
      <trkpt lat="47.46781" lon="6.88623">
        <ele>416.87</ele>
        <time>2014-03-03T16:37:43Z</time>
      </trkpt>
      <trkpt lat="47.46786" lon="6.88708">
        <ele>418.31</ele>
        <time>2014-03-03T16:38:01Z</time>
      </trkpt>
      <trkpt lat="47.46791" lon="6.88783">
        <ele>419.75</ele>
        <time>2014-03-03T16:38:18Z</time>
      </trkpt>
      <trkpt lat="47.468" lon="6.8886">
        <ele>418.79</ele>
        <time>2014-03-03T16:38:36Z</time>
      </trkpt>
      <trkpt lat="47.46811" lon="6.88944">
        <ele>419.75</ele>
        <time>2014-03-03T16:38:54Z</time>
      </trkpt>
      <trkpt lat="47.46817" lon="6.89027">
        <ele>420.71</ele>
        <time>2014-03-03T16:39:13Z</time>
      </trkpt>
      <trkpt lat="47.46825" lon="6.89095">
        <ele>422.16</ele>
        <time>2014-03-03T16:39:31Z</time>
      </trkpt>
      <trkpt lat="47.46828" lon="6.89137">
        <ele>419.75</ele>
        <time>2014-03-03T16:39:44Z</time>
      </trkpt>
      <trkpt lat="47.46838" lon="6.89199">
        <ele>419.75</ele>
        <time>2014-03-03T16:40:00Z</time>
      </trkpt>
      <trkpt lat="47.46851" lon="6.89289">
        <ele>423.12</ele>
        <time>2014-03-03T16:40:20Z</time>
      </trkpt>
      <trkpt lat="47.46863" lon="6.89376">
        <ele>426</ele>
        <time>2014-03-03T16:40:37Z</time>
      </trkpt>
      <trkpt lat="47.4687" lon="6.89485">
        <ele>427.92</ele>
        <time>2014-03-03T16:40:57Z</time>
      </trkpt>
      <trkpt lat="47.46876" lon="6.89589">
        <ele>428.89</ele>
        <time>2014-03-03T16:41:14Z</time>
      </trkpt>
      <trkpt lat="47.46882" lon="6.8969">
        <ele>429.37</ele>
        <time>2014-03-03T16:41:32Z</time>
      </trkpt>
      <trkpt lat="47.46884" lon="6.89779">
        <ele>432.25</ele>
        <time>2014-03-03T16:41:49Z</time>
      </trkpt>
      <trkpt lat="47.46884" lon="6.8984">
        <ele>433.21</ele>
        <time>2014-03-03T16:42:01Z</time>
      </trkpt>
      <trkpt lat="47.46871" lon="6.8988">
        <ele>434.17</ele>
        <time>2014-03-03T16:42:09Z</time>
      </trkpt>
      <trkpt lat="47.46846" lon="6.89914">
        <ele>432.25</ele>
        <time>2014-03-03T16:42:17Z</time>
      </trkpt>
      <trkpt lat="47.46837" lon="6.89931">
        <ele>431.77</ele>
        <time>2014-03-03T16:42:20Z</time>
      </trkpt>
      <trkpt lat="47.46823" lon="6.89951">
        <ele>430.81</ele>
        <time>2014-03-03T16:42:24Z</time>
      </trkpt>
      <trkpt lat="47.46754" lon="6.90043">
        <ele>428.4</ele>
        <time>2014-03-03T16:42:41Z</time>
      </trkpt>
      <trkpt lat="47.46747" lon="6.9005">
        <ele>427.92</ele>
        <time>2014-03-03T16:42:42Z</time>
      </trkpt>
      <trkpt lat="47.46728" lon="6.90121">
        <ele>423.12</ele>
        <time>2014-03-03T16:42:49Z</time>
      </trkpt>
      <trkpt lat="47.46739" lon="6.90146">
        <ele>422.16</ele>
        <time>2014-03-03T16:42:52Z</time>
      </trkpt>
      <trkpt lat="47.46745" lon="6.90182">
        <ele>421.19</ele>
        <time>2014-03-03T16:42:57Z</time>
      </trkpt>
      <trkpt lat="47.46741" lon="6.90213">
        <ele>420.71</ele>
        <time>2014-03-03T16:43:02Z</time>
      </trkpt>
      <trkpt lat="47.46732" lon="6.90235">
        <ele>420.71</ele>
        <time>2014-03-03T16:43:06Z</time>
      </trkpt>
      <trkpt lat="47.46724" lon="6.90284">
        <ele>420.23</ele>
        <time>2014-03-03T16:43:14Z</time>
      </trkpt>
      <trkpt lat="47.46722" lon="6.90318">
        <ele>419.75</ele>
        <time>2014-03-03T16:43:19Z</time>
      </trkpt>
      <trkpt lat="47.46712" lon="6.90343">
        <ele>418.31</ele>
        <time>2014-03-03T16:43:23Z</time>
      </trkpt>
      <trkpt lat="47.46697" lon="6.90349">
        <ele>417.35</ele>
        <time>2014-03-03T16:43:27Z</time>
      </trkpt>
      <trkpt lat="47.46662" lon="6.90335">
        <ele>418.31</ele>
        <time>2014-03-03T16:43:38Z</time>
      </trkpt>
      <trkpt lat="47.46659" lon="6.90333">
        <ele>418.79</ele>
        <time>2014-03-03T16:43:40Z</time>
      </trkpt>
      <trkpt lat="47.46653" lon="6.90338">
        <ele>420.71</ele>
        <time>2014-03-03T16:43:44Z</time>
      </trkpt>
      <trkpt lat="47.4663" lon="6.90363">
        <ele>426.96</ele>
        <time>2014-03-03T16:44:01Z</time>
      </trkpt>
      <trkpt lat="47.46629" lon="6.90364">
        <ele>427.44</ele>
        <time>2014-03-03T16:44:02Z</time>
      </trkpt>
      <trkpt lat="47.46621" lon="6.90409">
        <ele>432.73</ele>
        <time>2014-03-03T16:44:19Z</time>
      </trkpt>
      <trkpt lat="47.46614" lon="6.90448">
        <ele>435.13</ele>
        <time>2014-03-03T16:44:34Z</time>
      </trkpt>
      <trkpt lat="47.46599" lon="6.90472">
        <ele>437.06</ele>
        <time>2014-03-03T16:44:47Z</time>
      </trkpt>
      <trkpt lat="47.46587" lon="6.90508">
        <ele>442.34</ele>
        <time>2014-03-03T16:45:03Z</time>
      </trkpt>
      <trkpt lat="47.46586" lon="6.90548">
        <ele>442.34</ele>
        <time>2014-03-03T16:45:18Z</time>
      </trkpt>
      <trkpt lat="47.46586" lon="6.9059">
        <ele>441.86</ele>
        <time>2014-03-03T16:45:35Z</time>
      </trkpt>
      <trkpt lat="47.46594" lon="6.90635">
        <ele>442.34</ele>
        <time>2014-03-03T16:45:52Z</time>
      </trkpt>
      <trkpt lat="47.46596" lon="6.90679">
        <ele>445.71</ele>
        <time>2014-03-03T16:46:08Z</time>
      </trkpt>
      <trkpt lat="47.4659" lon="6.90725">
        <ele>447.63</ele>
        <time>2014-03-03T16:46:24Z</time>
      </trkpt>
      <trkpt lat="47.46573" lon="6.90778">
        <ele>455.32</ele>
        <time>2014-03-03T16:46:46Z</time>
      </trkpt>
      <trkpt lat="47.46559" lon="6.90822">
        <ele>459.65</ele>
        <time>2014-03-03T16:47:05Z</time>
      </trkpt>
      <trkpt lat="47.46546" lon="6.90858">
        <ele>464.93</ele>
        <time>2014-03-03T16:47:24Z</time>
      </trkpt>
      <trkpt lat="47.46537" lon="6.90881">
        <ele>469.74</ele>
        <time>2014-03-03T16:47:40Z</time>
      </trkpt>
      <trkpt lat="47.46529" lon="6.9089">
        <ele>473.59</ele>
        <time>2014-03-03T16:47:51Z</time>
      </trkpt>
      <trkpt lat="47.46511" lon="6.90922">
        <ele>481.28</ele>
        <time>2014-03-03T16:48:09Z</time>
      </trkpt>
      <trkpt lat="47.465" lon="6.90937">
        <ele>486.56</ele>
        <time>2014-03-03T16:48:22Z</time>
      </trkpt>
      <trkpt lat="47.46482" lon="6.90951">
        <ele>493.29</ele>
        <time>2014-03-03T16:48:36Z</time>
      </trkpt>
      <trkpt lat="47.46468" lon="6.90963">
        <ele>501.46</ele>
        <time>2014-03-03T16:48:49Z</time>
      </trkpt>
      <trkpt lat="47.46466" lon="6.90973">
        <ele>501.95</ele>
        <time>2014-03-03T16:48:51Z</time>
      </trkpt>
      <trkpt lat="47.46425" lon="6.90983">
        <ele>505.79</ele>
        <time>2014-03-03T16:49:09Z</time>
      </trkpt>
      <trkpt lat="47.46396" lon="6.90972">
        <ele>510.6</ele>
        <time>2014-03-03T16:49:22Z</time>
      </trkpt>
      <trkpt lat="47.46368" lon="6.90973">
        <ele>513.48</ele>
        <time>2014-03-03T16:49:39Z</time>
      </trkpt>
      <trkpt lat="47.46337" lon="6.90997">
        <ele>512.52</ele>
        <time>2014-03-03T16:50:01Z</time>
      </trkpt>
      <trkpt lat="47.46315" lon="6.91047">
        <ele>503.87</ele>
        <time>2014-03-03T16:50:23Z</time>
      </trkpt>
      <trkpt lat="47.46289" lon="6.91078">
        <ele>501.95</ele>
        <time>2014-03-03T16:50:44Z</time>
      </trkpt>
      <trkpt lat="47.46268" lon="6.91105">
        <ele>502.43</ele>
        <time>2014-03-03T16:51:01Z</time>
      </trkpt>
      <trkpt lat="47.46248" lon="6.91145">
        <ele>505.31</ele>
        <time>2014-03-03T16:51:23Z</time>
      </trkpt>
      <trkpt lat="47.46224" lon="6.91165">
        <ele>509.64</ele>
        <time>2014-03-03T16:51:42Z</time>
      </trkpt>
      <trkpt lat="47.46192" lon="6.91183">
        <ele>507.71</ele>
        <time>2014-03-03T16:52:02Z</time>
      </trkpt>
      <trkpt lat="47.46159" lon="6.91176">
        <ele>510.12</ele>
        <time>2014-03-03T16:52:23Z</time>
      </trkpt>
      <trkpt lat="47.46125" lon="6.91172">
        <ele>513.96</ele>
        <time>2014-03-03T16:52:44Z</time>
      </trkpt>
      <trkpt lat="47.46098" lon="6.91181">
        <ele>516.85</ele>
        <time>2014-03-03T16:53:02Z</time>
      </trkpt>
      <trkpt lat="47.46079" lon="6.91215">
        <ele>521.65</ele>
        <time>2014-03-03T16:53:22Z</time>
      </trkpt>
      <trkpt lat="47.46071" lon="6.91256">
        <ele>523.58</ele>
        <time>2014-03-03T16:53:40Z</time>
      </trkpt>
      <trkpt lat="47.46066" lon="6.91298">
        <ele>525.5</ele>
        <time>2014-03-03T16:53:58Z</time>
      </trkpt>
      <trkpt lat="47.46057" lon="6.91329">
        <ele>527.42</ele>
        <time>2014-03-03T16:54:12Z</time>
      </trkpt>
      <trkpt lat="47.4605" lon="6.91372">
        <ele>531.27</ele>
        <time>2014-03-03T16:54:27Z</time>
      </trkpt>
      <trkpt lat="47.46044" lon="6.91409">
        <ele>533.67</ele>
        <time>2014-03-03T16:54:40Z</time>
      </trkpt>
      <trkpt lat="47.46029" lon="6.91434">
        <ele>549.05</ele>
        <time>2014-03-03T16:54:56Z</time>
      </trkpt>
      <trkpt lat="47.46009" lon="6.91465">
        <ele>556.74</ele>
        <time>2014-03-03T16:55:10Z</time>
      </trkpt>
      <trkpt lat="47.45989" lon="6.91492">
        <ele>562.99</ele>
        <time>2014-03-03T16:55:24Z</time>
      </trkpt>
      <trkpt lat="47.45967" lon="6.91525">
        <ele>568.76</ele>
        <time>2014-03-03T16:55:40Z</time>
      </trkpt>
      <trkpt lat="47.45948" lon="6.91537">
        <ele>571.16</ele>
        <time>2014-03-03T16:55:53Z</time>
      </trkpt>
      <trkpt lat="47.45914" lon="6.91555">
        <ele>570.68</ele>
        <time>2014-03-03T16:56:10Z</time>
      </trkpt>
      <trkpt lat="47.45868" lon="6.91561">
        <ele>551.93</ele>
        <time>2014-03-03T16:56:26Z</time>
      </trkpt>
      <trkpt lat="47.45832" lon="6.9156">
        <ele>545.69</ele>
        <time>2014-03-03T16:56:41Z</time>
      </trkpt>
      <trkpt lat="47.45781" lon="6.91554">
        <ele>542.32</ele>
        <time>2014-03-03T16:57:00Z</time>
      </trkpt>
      <trkpt lat="47.45735" lon="6.91559">
        <ele>541.36</ele>
        <time>2014-03-03T16:57:14Z</time>
      </trkpt>
      <trkpt lat="47.45682" lon="6.91576">
        <ele>542.32</ele>
        <time>2014-03-03T16:57:27Z</time>
      </trkpt>
      <trkpt lat="47.45647" lon="6.91593">
        <ele>542.8</ele>
        <time>2014-03-03T16:57:35Z</time>
      </trkpt>
      <trkpt lat="47.45627" lon="6.91596">
        <ele>544.24</ele>
        <time>2014-03-03T16:57:40Z</time>
      </trkpt>
      <trkpt lat="47.45614" lon="6.91572">
        <ele>551.45</ele>
        <time>2014-03-03T16:57:54Z</time>
      </trkpt>
      <trkpt lat="47.45607" lon="6.91546">
        <ele>560.59</ele>
        <time>2014-03-03T16:58:09Z</time>
      </trkpt>
      <trkpt lat="47.45594" lon="6.91521">
        <ele>569.24</ele>
        <time>2014-03-03T16:58:27Z</time>
      </trkpt>
      <trkpt lat="47.45573" lon="6.91498">
        <ele>574.04</ele>
        <time>2014-03-03T16:58:44Z</time>
      </trkpt>
      <trkpt lat="47.45558" lon="6.91478">
        <ele>578.37</ele>
        <time>2014-03-03T16:59:00Z</time>
      </trkpt>
      <trkpt lat="47.45542" lon="6.91466">
        <ele>589.43</ele>
        <time>2014-03-03T16:59:15Z</time>
      </trkpt>
      <trkpt lat="47.45528" lon="6.91462">
        <ele>595.19</ele>
        <time>2014-03-03T16:59:23Z</time>
      </trkpt>
      <trkpt lat="47.45501" lon="6.9144">
        <ele>602.4</ele>
        <time>2014-03-03T16:59:40Z</time>
      </trkpt>
      <trkpt lat="47.45467" lon="6.91425">
        <ele>609.13</ele>
        <time>2014-03-03T16:59:57Z</time>
      </trkpt>
      <trkpt lat="47.45432" lon="6.91415">
        <ele>612.5</ele>
        <time>2014-03-03T17:00:14Z</time>
      </trkpt>
      <trkpt lat="47.45397" lon="6.91408">
        <ele>606.25</ele>
        <time>2014-03-03T17:00:27Z</time>
      </trkpt>
      <trkpt lat="47.45359" lon="6.91407">
        <ele>602.88</ele>
        <time>2014-03-03T17:00:43Z</time>
      </trkpt>
      <trkpt lat="47.45318" lon="6.91403">
        <ele>601.44</ele>
        <time>2014-03-03T17:01:00Z</time>
      </trkpt>
      <trkpt lat="47.45269" lon="6.91394">
        <ele>598.08</ele>
        <time>2014-03-03T17:01:17Z</time>
      </trkpt>
      <trkpt lat="47.4523" lon="6.91391">
        <ele>593.75</ele>
        <time>2014-03-03T17:01:31Z</time>
      </trkpt>
      <trkpt lat="47.45195" lon="6.91387">
        <ele>592.31</ele>
        <time>2014-03-03T17:01:48Z</time>
      </trkpt>
      <trkpt lat="47.45163" lon="6.91375">
        <ele>589.91</ele>
        <time>2014-03-03T17:02:02Z</time>
      </trkpt>
      <trkpt lat="47.45136" lon="6.91369">
        <ele>589.43</ele>
        <time>2014-03-03T17:02:16Z</time>
      </trkpt>
      <trkpt lat="47.45096" lon="6.91372">
        <ele>589.91</ele>
        <time>2014-03-03T17:02:30Z</time>
      </trkpt>
      <trkpt lat="47.45056" lon="6.91365">
        <ele>591.83</ele>
        <time>2014-03-03T17:02:46Z</time>
      </trkpt>
      <trkpt lat="47.45016" lon="6.91354">
        <ele>593.75</ele>
        <time>2014-03-03T17:03:01Z</time>
      </trkpt>
      <trkpt lat="47.44978" lon="6.91347">
        <ele>595.67</ele>
        <time>2014-03-03T17:03:16Z</time>
      </trkpt>
      <trkpt lat="47.44937" lon="6.91338">
        <ele>596.64</ele>
        <time>2014-03-03T17:03:33Z</time>
      </trkpt>
      <trkpt lat="47.44906" lon="6.9133">
        <ele>601.44</ele>
        <time>2014-03-03T17:03:47Z</time>
      </trkpt>
      <trkpt lat="47.44866" lon="6.91315">
        <ele>607.21</ele>
        <time>2014-03-03T17:04:01Z</time>
      </trkpt>
      <trkpt lat="47.44834" lon="6.91306">
        <ele>613.46</ele>
        <time>2014-03-03T17:04:15Z</time>
      </trkpt>
      <trkpt lat="47.44817" lon="6.91291">
        <ele>622.11</ele>
        <time>2014-03-03T17:04:31Z</time>
      </trkpt>
      <trkpt lat="47.4479" lon="6.91271">
        <ele>627.4</ele>
        <time>2014-03-03T17:04:48Z</time>
      </trkpt>
      <trkpt lat="47.44755" lon="6.91259">
        <ele>629.8</ele>
        <time>2014-03-03T17:05:03Z</time>
      </trkpt>
      <trkpt lat="47.44721" lon="6.9125">
        <ele>633.17</ele>
        <time>2014-03-03T17:05:18Z</time>
      </trkpt>
      <trkpt lat="47.44697" lon="6.9124">
        <ele>631.72</ele>
        <time>2014-03-03T17:05:31Z</time>
      </trkpt>
      <trkpt lat="47.44695" lon="6.91241">
        <ele>631.72</ele>
        <time>2014-03-03T17:05:32Z</time>
      </trkpt>
      <trkpt lat="47.44654" lon="6.91254">
        <ele>634.61</ele>
        <time>2014-03-03T17:05:50Z</time>
      </trkpt>
      <trkpt lat="47.44645" lon="6.91257">
        <ele>634.61</ele>
        <time>2014-03-03T17:05:52Z</time>
      </trkpt>
      <trkpt lat="47.44574" lon="6.91284">
        <ele>628.36</ele>
        <time>2014-03-03T17:05:59Z</time>
      </trkpt>
      <trkpt lat="47.44503" lon="6.91333">
        <ele>613.94</ele>
        <time>2014-03-03T17:06:09Z</time>
      </trkpt>
      <trkpt lat="47.44488" lon="6.91328">
        <ele>610.09</ele>
        <time>2014-03-03T17:06:15Z</time>
      </trkpt>
      <trkpt lat="47.4449" lon="6.91298">
        <ele>605.29</ele>
        <time>2014-03-03T17:06:29Z</time>
      </trkpt>
      <trkpt lat="47.44491" lon="6.91263">
        <ele>606.25</ele>
        <time>2014-03-03T17:06:43Z</time>
      </trkpt>
      <trkpt lat="47.44498" lon="6.91227">
        <ele>609.13</ele>
        <time>2014-03-03T17:06:54Z</time>
      </trkpt>
      <trkpt lat="47.44501" lon="6.91219">
        <ele>612.02</ele>
        <time>2014-03-03T17:06:59Z</time>
      </trkpt>
      <trkpt lat="47.445" lon="6.912">
        <ele>615.86</ele>
        <time>2014-03-03T17:07:03Z</time>
      </trkpt>
      <trkpt lat="47.44491" lon="6.91125">
        <ele>623.55</ele>
        <time>2014-03-03T17:07:16Z</time>
      </trkpt>
      <trkpt lat="47.44499" lon="6.91059">
        <ele>621.15</ele>
        <time>2014-03-03T17:07:28Z</time>
      </trkpt>
      <trkpt lat="47.44508" lon="6.91013">
        <ele>620.19</ele>
        <time>2014-03-03T17:07:39Z</time>
      </trkpt>
      <trkpt lat="47.44506" lon="6.90948">
        <ele>616.34</ele>
        <time>2014-03-03T17:07:53Z</time>
      </trkpt>
      <trkpt lat="47.44512" lon="6.90878">
        <ele>613.94</ele>
        <time>2014-03-03T17:08:10Z</time>
      </trkpt>
      <trkpt lat="47.44521" lon="6.90821">
        <ele>603.85</ele>
        <time>2014-03-03T17:08:24Z</time>
      </trkpt>
      <trkpt lat="47.44509" lon="6.9077">
        <ele>600</ele>
        <time>2014-03-03T17:08:35Z</time>
      </trkpt>
      <trkpt lat="47.44491" lon="6.9069">
        <ele>587.98</ele>
        <time>2014-03-03T17:08:48Z</time>
      </trkpt>
      <trkpt lat="47.44484" lon="6.90637">
        <ele>583.18</ele>
        <time>2014-03-03T17:08:55Z</time>
      </trkpt>
      <trkpt lat="47.44482" lon="6.9059">
        <ele>578.85</ele>
        <time>2014-03-03T17:09:01Z</time>
      </trkpt>
      <trkpt lat="47.4448" lon="6.90559">
        <ele>575.49</ele>
        <time>2014-03-03T17:09:10Z</time>
      </trkpt>
      <trkpt lat="47.44472" lon="6.90557">
        <ele>575.01</ele>
        <time>2014-03-03T17:09:14Z</time>
      </trkpt>
      <trkpt lat="47.44451" lon="6.90562">
        <ele>575.49</ele>
        <time>2014-03-03T17:09:25Z</time>
      </trkpt>
      <trkpt lat="47.44438" lon="6.90558">
        <ele>575.49</ele>
        <time>2014-03-03T17:09:35Z</time>
      </trkpt>
      <trkpt lat="47.44415" lon="6.90542">
        <ele>574.04</ele>
        <time>2014-03-03T17:09:47Z</time>
      </trkpt>
      <trkpt lat="47.44399" lon="6.90542">
        <ele>571.64</ele>
        <time>2014-03-03T17:09:57Z</time>
      </trkpt>
      <trkpt lat="47.44394" lon="6.90542">
        <ele>569.72</ele>
        <time>2014-03-03T17:10:14Z</time>
      </trkpt>
      <trkpt lat="47.44392" lon="6.90543">
        <ele>566.83</ele>
        <time>2014-03-03T17:10:32Z</time>
      </trkpt>
      <trkpt lat="47.44385" lon="6.90533">
        <ele>563.47</ele>
        <time>2014-03-03T17:10:44Z</time>
      </trkpt>
      <trkpt lat="47.44385" lon="6.90532">
        <ele>562.51</ele>
        <time>2014-03-03T17:10:46Z</time>
      </trkpt>
      <trkpt lat="47.44403" lon="6.90505">
        <ele>560.59</ele>
        <time>2014-03-03T17:11:02Z</time>
      </trkpt>
      <trkpt lat="47.44407" lon="6.90469">
        <ele>559.14</ele>
        <time>2014-03-03T17:11:10Z</time>
      </trkpt>
      <trkpt lat="47.44413" lon="6.90423">
        <ele>560.11</ele>
        <time>2014-03-03T17:11:16Z</time>
      </trkpt>
      <trkpt lat="47.44414" lon="6.90406">
        <ele>560.11</ele>
        <time>2014-03-03T17:11:18Z</time>
      </trkpt>
      <trkpt lat="47.44419" lon="6.90327">
        <ele>561.55</ele>
        <time>2014-03-03T17:11:28Z</time>
      </trkpt>
      <trkpt lat="47.4441" lon="6.90214">
        <ele>560.59</ele>
        <time>2014-03-03T17:11:43Z</time>
      </trkpt>
      <trkpt lat="47.44409" lon="6.90144">
        <ele>560.11</ele>
        <time>2014-03-03T17:11:56Z</time>
      </trkpt>
      <trkpt lat="47.44423" lon="6.90107">
        <ele>563.95</ele>
        <time>2014-03-03T17:12:07Z</time>
      </trkpt>
      <trkpt lat="47.44439" lon="6.90059">
        <ele>573.56</ele>
        <time>2014-03-03T17:12:19Z</time>
      </trkpt>
      <trkpt lat="47.44433" lon="6.89985">
        <ele>572.12</ele>
        <time>2014-03-03T17:12:32Z</time>
      </trkpt>
      <trkpt lat="47.44424" lon="6.89926">
        <ele>569.72</ele>
        <time>2014-03-03T17:12:44Z</time>
      </trkpt>
      <trkpt lat="47.44405" lon="6.89876">
        <ele>570.68</ele>
        <time>2014-03-03T17:12:56Z</time>
      </trkpt>
      <trkpt lat="47.44398" lon="6.89826">
        <ele>570.68</ele>
        <time>2014-03-03T17:13:08Z</time>
      </trkpt>
      <trkpt lat="47.44398" lon="6.89758">
        <ele>570.2</ele>
        <time>2014-03-03T17:13:21Z</time>
      </trkpt>
      <trkpt lat="47.44416" lon="6.89713">
        <ele>568.76</ele>
        <time>2014-03-03T17:13:33Z</time>
      </trkpt>
      <trkpt lat="47.44438" lon="6.89734">
        <ele>567.32</ele>
        <time>2014-03-03T17:13:44Z</time>
      </trkpt>
      <trkpt lat="47.44437" lon="6.89784">
        <ele>556.26</ele>
        <time>2014-03-03T17:13:56Z</time>
      </trkpt>
      <trkpt lat="47.44439" lon="6.89811">
        <ele>550.49</ele>
        <time>2014-03-03T17:14:04Z</time>
      </trkpt>
      <trkpt lat="47.44474" lon="6.89777">
        <ele>550.97</ele>
        <time>2014-03-03T17:14:15Z</time>
      </trkpt>
      <trkpt lat="47.44488" lon="6.89749">
        <ele>551.45</ele>
        <time>2014-03-03T17:14:20Z</time>
      </trkpt>
      <trkpt lat="47.44489" lon="6.89672">
        <ele>549.05</ele>
        <time>2014-03-03T17:14:26Z</time>
      </trkpt>
      <trkpt lat="47.44514" lon="6.89622">
        <ele>547.13</ele>
        <time>2014-03-03T17:14:33Z</time>
      </trkpt>
      <trkpt lat="47.44525" lon="6.89536">
        <ele>546.17</ele>
        <time>2014-03-03T17:14:42Z</time>
      </trkpt>
      <trkpt lat="47.44529" lon="6.89496">
        <ele>545.2</ele>
        <time>2014-03-03T17:14:46Z</time>
      </trkpt>
      <trkpt lat="47.44532" lon="6.89478">
        <ele>545.2</ele>
        <time>2014-03-03T17:14:48Z</time>
      </trkpt>
      <trkpt lat="47.44547" lon="6.89436">
        <ele>544.24</ele>
        <time>2014-03-03T17:14:53Z</time>
      </trkpt>
      <trkpt lat="47.44571" lon="6.89336">
        <ele>539.92</ele>
        <time>2014-03-03T17:15:02Z</time>
      </trkpt>
      <trkpt lat="47.44588" lon="6.89241">
        <ele>537.03</ele>
        <time>2014-03-03T17:15:12Z</time>
      </trkpt>
      <trkpt lat="47.44601" lon="6.89085">
        <ele>520.69</ele>
        <time>2014-03-03T17:15:27Z</time>
      </trkpt>
      <trkpt lat="47.44601" lon="6.89052">
        <ele>519.73</ele>
        <time>2014-03-03T17:15:30Z</time>
      </trkpt>
      <trkpt lat="47.44611" lon="6.89017">
        <ele>517.33</ele>
        <time>2014-03-03T17:15:35Z</time>
      </trkpt>
      <trkpt lat="47.44621" lon="6.89005">
        <ele>514.92</ele>
        <time>2014-03-03T17:15:38Z</time>
      </trkpt>
      <trkpt lat="47.44638" lon="6.88969">
        <ele>514.44</ele>
        <time>2014-03-03T17:15:44Z</time>
      </trkpt>
      <trkpt lat="47.44652" lon="6.88933">
        <ele>515.4</ele>
        <time>2014-03-03T17:15:50Z</time>
      </trkpt>
      <trkpt lat="47.44668" lon="6.88914">
        <ele>514.92</ele>
        <time>2014-03-03T17:15:54Z</time>
      </trkpt>
      <trkpt lat="47.44705" lon="6.88877">
        <ele>510.6</ele>
        <time>2014-03-03T17:16:01Z</time>
      </trkpt>
      <trkpt lat="47.44727" lon="6.88843">
        <ele>507.71</ele>
        <time>2014-03-03T17:16:06Z</time>
      </trkpt>
      <trkpt lat="47.44734" lon="6.88832">
        <ele>506.27</ele>
        <time>2014-03-03T17:16:08Z</time>
      </trkpt>
      <trkpt lat="47.44747" lon="6.88747">
        <ele>494.74</ele>
        <time>2014-03-03T17:16:19Z</time>
      </trkpt>
      <trkpt lat="47.44739" lon="6.8868">
        <ele>486.08</ele>
        <time>2014-03-03T17:16:27Z</time>
      </trkpt>
      <trkpt lat="47.44765" lon="6.88559">
        <ele>478.39</ele>
        <time>2014-03-03T17:16:36Z</time>
      </trkpt>
      <trkpt lat="47.44801" lon="6.88463">
        <ele>467.82</ele>
        <time>2014-03-03T17:16:45Z</time>
      </trkpt>
      <trkpt lat="47.44821" lon="6.88462">
        <ele>459.17</ele>
        <time>2014-03-03T17:16:52Z</time>
      </trkpt>
      <trkpt lat="47.44832" lon="6.88454">
        <ele>456.76</ele>
        <time>2014-03-03T17:16:55Z</time>
      </trkpt>
      <trkpt lat="47.4489" lon="6.88352">
        <ele>446.19</ele>
        <time>2014-03-03T17:17:07Z</time>
      </trkpt>
      <trkpt lat="47.44977" lon="6.88254">
        <ele>433.69</ele>
        <time>2014-03-03T17:17:20Z</time>
      </trkpt>
      <trkpt lat="47.45012" lon="6.88216">
        <ele>429.85</ele>
        <time>2014-03-03T17:17:26Z</time>
      </trkpt>
      <trkpt lat="47.45038" lon="6.88188">
        <ele>427.44</ele>
        <time>2014-03-03T17:17:32Z</time>
      </trkpt>
      <trkpt lat="47.45044" lon="6.88178">
        <ele>426.96</ele>
        <time>2014-03-03T17:17:34Z</time>
      </trkpt>
      <trkpt lat="47.45065" lon="6.88124">
        <ele>424.56</ele>
        <time>2014-03-03T17:17:43Z</time>
      </trkpt>
      <trkpt lat="47.451" lon="6.88062">
        <ele>421.68</ele>
        <time>2014-03-03T17:17:55Z</time>
      </trkpt>
      <trkpt lat="47.4512" lon="6.88029">
        <ele>419.75</ele>
        <time>2014-03-03T17:17:59Z</time>
      </trkpt>
      <trkpt lat="47.45197" lon="6.87924">
        <ele>409.18</ele>
        <time>2014-03-03T17:18:10Z</time>
      </trkpt>
      <trkpt lat="47.45257" lon="6.87807">
        <ele>397.64</ele>
        <time>2014-03-03T17:18:20Z</time>
      </trkpt>
      <trkpt lat="47.45262" lon="6.87799">
        <ele>396.2</ele>
        <time>2014-03-03T17:18:21Z</time>
      </trkpt>
      <trkpt lat="47.45298" lon="6.87756">
        <ele>388.51</ele>
        <time>2014-03-03T17:18:27Z</time>
      </trkpt>
      <trkpt lat="47.45317" lon="6.87738">
        <ele>383.22</ele>
        <time>2014-03-03T17:18:31Z</time>
      </trkpt>
      <trkpt lat="47.45364" lon="6.87705">
        <ele>371.21</ele>
        <time>2014-03-03T17:18:43Z</time>
      </trkpt>
      <trkpt lat="47.45367" lon="6.87703">
        <ele>370.73</ele>
        <time>2014-03-03T17:18:44Z</time>
      </trkpt>
      <trkpt lat="47.45389" lon="6.87698">
        <ele>363.04</ele>
        <time>2014-03-03T17:18:55Z</time>
      </trkpt>
      <trkpt lat="47.45393" lon="6.87697">
        <ele>361.59</ele>
        <time>2014-03-03T17:18:57Z</time>
      </trkpt>
      <trkpt lat="47.45399" lon="6.87704">
        <ele>361.59</ele>
        <time>2014-03-03T17:18:59Z</time>
      </trkpt>
      <trkpt lat="47.45405" lon="6.87675">
        <ele>356.31</ele>
        <time>2014-03-03T17:19:05Z</time>
      </trkpt>
      <trkpt lat="47.45391" lon="6.87651">
        <ele>355.83</ele>
        <time>2014-03-03T17:19:10Z</time>
      </trkpt>
      <trkpt lat="47.4535" lon="6.87639">
        <ele>356.31</ele>
        <time>2014-03-03T17:19:19Z</time>
      </trkpt>
      <trkpt lat="47.45337" lon="6.8765">
        <ele>356.79</ele>
        <time>2014-03-03T17:19:22Z</time>
      </trkpt>
      <trkpt lat="47.45327" lon="6.87655">
        <ele>357.27</ele>
        <time>2014-03-03T17:19:24Z</time>
      </trkpt>
      <trkpt lat="47.45307" lon="6.87662">
        <ele>357.27</ele>
        <time>2014-03-03T17:19:28Z</time>
      </trkpt>
      <trkpt lat="47.45293" lon="6.87663">
        <ele>357.27</ele>
        <time>2014-03-03T17:19:31Z</time>
      </trkpt>
      <trkpt lat="47.45273" lon="6.87667">
        <ele>356.79</ele>
        <time>2014-03-03T17:19:35Z</time>
      </trkpt>
      <trkpt lat="47.45241" lon="6.87686">
        <ele>355.34</ele>
        <time>2014-03-03T17:19:42Z</time>
      </trkpt>
      <trkpt lat="47.45228" lon="6.8771">
        <ele>355.34</ele>
        <time>2014-03-03T17:19:48Z</time>
      </trkpt>
      <trkpt lat="47.45217" lon="6.87741">
        <ele>354.86</ele>
        <time>2014-03-03T17:19:59Z</time>
      </trkpt>
      <trkpt lat="47.45214" lon="6.87745">
        <ele>355.34</ele>
        <time>2014-03-03T17:20:01Z</time>
      </trkpt>
      <trkpt lat="47.452" lon="6.87764">
        <ele>357.75</ele>
        <time>2014-03-03T17:20:11Z</time>
      </trkpt>
      <trkpt lat="47.4516" lon="6.87805">
        <ele>358.71</ele>
        <time>2014-03-03T17:20:26Z</time>
      </trkpt>
      <trkpt lat="47.45108" lon="6.87849">
        <ele>358.23</ele>
        <time>2014-03-03T17:20:41Z</time>
      </trkpt>
      <trkpt lat="47.45091" lon="6.87862">
        <ele>358.23</ele>
        <time>2014-03-03T17:20:46Z</time>
      </trkpt>
      <trkpt lat="47.4507" lon="6.87878">
        <ele>358.71</ele>
        <time>2014-03-03T17:20:52Z</time>
      </trkpt>
      <trkpt lat="47.45036" lon="6.87911">
        <ele>357.27</ele>
        <time>2014-03-03T17:21:02Z</time>
      </trkpt>
      <trkpt lat="47.4501" lon="6.87924">
        <ele>356.31</ele>
        <time>2014-03-03T17:21:08Z</time>
      </trkpt>
      <trkpt lat="47.44942" lon="6.87971">
        <ele>353.9</ele>
        <time>2014-03-03T17:21:25Z</time>
      </trkpt>
      <trkpt lat="47.44904" lon="6.87996">
        <ele>354.38</ele>
        <time>2014-03-03T17:21:34Z</time>
      </trkpt>
      <trkpt lat="47.44853" lon="6.88067">
        <ele>354.38</ele>
        <time>2014-03-03T17:21:49Z</time>
      </trkpt>
      <trkpt lat="47.44812" lon="6.88127">
        <ele>357.27</ele>
        <time>2014-03-03T17:22:04Z</time>
      </trkpt>
      <trkpt lat="47.44776" lon="6.88185">
        <ele>359.67</ele>
        <time>2014-03-03T17:22:19Z</time>
      </trkpt>
      <trkpt lat="47.44761" lon="6.88214">
        <ele>359.67</ele>
        <time>2014-03-03T17:22:25Z</time>
      </trkpt>
      <trkpt lat="47.44728" lon="6.88277">
        <ele>359.67</ele>
        <time>2014-03-03T17:22:40Z</time>
      </trkpt>
      <trkpt lat="47.44703" lon="6.88249">
        <ele>358.71</ele>
        <time>2014-03-03T17:22:49Z</time>
      </trkpt>
      <trkpt lat="47.44666" lon="6.88199">
        <ele>360.63</ele>
        <time>2014-03-03T17:23:02Z</time>
      </trkpt>
      <trkpt lat="47.44654" lon="6.88206">
        <ele>361.11</ele>
        <time>2014-03-03T17:23:06Z</time>
      </trkpt>
      <trkpt lat="47.44649" lon="6.88222">
        <ele>361.59</ele>
        <time>2014-03-03T17:23:09Z</time>
      </trkpt>
      <trkpt lat="47.44628" lon="6.88264">
        <ele>361.59</ele>
        <time>2014-03-03T17:23:17Z</time>
      </trkpt>
      <trkpt lat="47.44607" lon="6.88305">
        <ele>361.59</ele>
        <time>2014-03-03T17:23:25Z</time>
      </trkpt>
      <trkpt lat="47.44596" lon="6.88326">
        <ele>362.07</ele>
        <time>2014-03-03T17:23:29Z</time>
      </trkpt>
      <trkpt lat="47.44538" lon="6.88378">
        <ele>362.55</ele>
        <time>2014-03-03T17:23:45Z</time>
      </trkpt>
      <trkpt lat="47.44521" lon="6.88395">
        <ele>362.55</ele>
        <time>2014-03-03T17:23:50Z</time>
      </trkpt>
      <trkpt lat="47.44516" lon="6.88405">
        <ele>362.07</ele>
        <time>2014-03-03T17:23:52Z</time>
      </trkpt>
      <trkpt lat="47.44503" lon="6.88418">
        <ele>362.07</ele>
        <time>2014-03-03T17:23:56Z</time>
      </trkpt>
      <trkpt lat="47.44488" lon="6.88421">
        <ele>362.07</ele>
        <time>2014-03-03T17:24:00Z</time>
      </trkpt>
      <trkpt lat="47.44449" lon="6.88417">
        <ele>363.04</ele>
        <time>2014-03-03T17:24:10Z</time>
      </trkpt>
      <trkpt lat="47.44433" lon="6.88415">
        <ele>363.52</ele>
        <time>2014-03-03T17:24:14Z</time>
      </trkpt>
      <trkpt lat="47.4443" lon="6.88395">
        <ele>364.96</ele>
        <time>2014-03-03T17:24:19Z</time>
      </trkpt>
      <trkpt lat="47.44447" lon="6.88344">
        <ele>363.52</ele>
        <time>2014-03-03T17:24:34Z</time>
      </trkpt>
      <trkpt lat="47.44447" lon="6.88338">
        <ele>363.52</ele>
        <time>2014-03-03T17:24:46Z</time>
      </trkpt>
      <trkpt lat="47.44443" lon="6.88336">
        <ele>363.52</ele>
        <time>2014-03-03T17:25:00Z</time>
      </trkpt>
      <trkpt lat="47.44442" lon="6.88336">
        <ele>363.04</ele>
        <time>2014-03-03T17:25:19Z</time>
      </trkpt>
      <trkpt lat="47.44442" lon="6.88337">
        <ele>362.55</ele>
        <time>2014-03-03T17:25:57Z</time>
      </trkpt>
      <trkpt lat="47.44441" lon="6.88336">
        <ele>361.59</ele>
        <time>2014-03-03T17:26:33Z</time>
      </trkpt>
      <trkpt lat="47.44439" lon="6.88336">
        <ele>362.07</ele>
        <time>2014-03-03T17:27:10Z</time>
      </trkpt>
      <trkpt lat="47.44438" lon="6.88337">
        <ele>362.07</ele>
        <time>2014-03-03T17:27:37Z</time>
      </trkpt>
      <trkpt lat="47.44437" lon="6.88337">
        <ele>362.55</ele>
        <time>2014-03-03T17:28:15Z</time>
      </trkpt>
      <trkpt lat="47.44436" lon="6.88336">
        <ele>364.48</ele>
        <time>2014-03-03T17:28:41Z</time>
      </trkpt>
      <trkpt lat="47.44437" lon="6.88334">
        <ele>364.96</ele>
        <time>2014-03-03T17:29:06Z</time>
      </trkpt>
      <trkpt lat="47.44434" lon="6.88333">
        <ele>364.96</ele>
        <time>2014-03-03T17:29:30Z</time>
      </trkpt>
      <trkpt lat="47.44433" lon="6.88333">
        <ele>364.48</ele>
        <time>2014-03-03T17:29:32Z</time>
      </trkpt>
      <trkpt lat="47.44431" lon="6.88327">
        <ele>364.96</ele>
        <time>2014-03-03T17:30:18Z</time>
      </trkpt>
      <trkpt lat="47.44437" lon="6.88339">
        <ele>370.24</ele>
        <time>2014-03-03T17:30:34Z</time>
      </trkpt>
      <trkpt lat="47.44437" lon="6.88339">
        <ele>370.24</ele>
        <time>2014-03-03T17:30:35Z</time>
      </trkpt>
      <trkpt lat="47.44425" lon="6.88337">
        <ele>373.13</ele>
        <time>2014-03-03T17:30:46Z</time>
      </trkpt>
      <trkpt lat="47.4444" lon="6.88307">
        <ele>375.05</ele>
        <time>2014-03-03T17:32:59Z</time>
      </trkpt>
      <trkpt lat="47.44434" lon="6.8832">
        <ele>367.36</ele>
        <time>2014-03-03T17:33:19Z</time>
      </trkpt>
      <trkpt lat="47.44437" lon="6.88317">
        <ele>364</ele>
        <time>2014-03-03T17:33:40Z</time>
      </trkpt>
      <trkpt lat="47.44434" lon="6.88344">
        <ele>322.66</ele>
        <time>2014-03-03T17:34:22Z</time>
      </trkpt>
      <trkpt lat="47.44438" lon="6.88318">
        <ele>373.61</ele>
        <time>2014-03-03T17:34:47Z</time>
      </trkpt>
    </trkseg>
  </trk>
</gpx>